sensor_id;sensor_type;location;lat;lon;timestamp;P1;durP1;ratioP1;P2;durP2;ratioP2
22780;SDS011;11557;50.884;4.322;2023-09-18T00:02:24;5.20;;;2.13;;
22780;SDS011;11557;50.884;4.322;2023-09-18T00:04:50;3.10;;;2.28;;
22780;SDS011;11557;50.884;4.322;2023-09-18T00:07:17;4.03;;;2.28;;
22780;SDS011;11557;50.884;4.322;2023-09-18T00:09:43;2.05;;;1.63;;
22780;SDS011;11557;50.884;4.322;2023-09-18T00:12:08;2.30;;;1.90;;
22780;SDS011;11557;50.884;4.322;2023-09-18T00:14:35;7.10;;;1.65;;
22780;SDS011;11557;50.884;4.322;2023-09-18T00:19:52;2.00;;;1.67;;
22780;SDS011;11557;50.884;4.322;2023-09-18T00:22:18;3.33;;;1.95;;
22780;SDS011;11557;50.884;4.322;2023-09-18T00:24:44;4.88;;;2.47;;
22780;SDS011;11557;50.884;4.322;2023-09-18T00:27:09;3.70;;;2.15;;
22780;SDS011;11557;50.884;4.322;2023-09-18T00:29:36;2.90;;;2.22;;
22780;SDS011;11557;50.884;4.322;2023-09-18T00:32:02;1.75;;;1.42;;
22780;SDS011;11557;50.884;4.322;2023-09-18T00:34:29;4.38;;;2.20;;
22780;SDS011;11557;50.884;4.322;2023-09-18T00:36:56;4.88;;;2.38;;
22780;SDS011;11557;50.884;4.322;2023-09-18T00:39:24;2.85;;;1.95;;
22780;SDS011;11557;50.884;4.322;2023-09-18T00:41:50;5.25;;;2.25;;
22780;SDS011;11557;50.884;4.322;2023-09-18T00:44:19;5.07;;;2.50;;
22780;SDS011;11557;50.884;4.322;2023-09-18T00:46:47;1.63;;;1.25;;
22780;SDS011;11557;50.884;4.322;2023-09-18T00:49:14;5.50;;;1.73;;
22780;SDS011;11557;50.884;4.322;2023-09-18T00:51:40;3.13;;;2.25;;
22780;SDS011;11557;50.884;4.322;2023-09-18T00:54:06;3.65;;;1.27;;
22780;SDS011;11557;50.884;4.322;2023-09-18T00:56:33;10.27;;;1.77;;
22780;SDS011;11557;50.884;4.322;2023-09-18T00:59:00;3.08;;;1.73;;
22780;SDS011;11557;50.884;4.322;2023-09-18T01:01:28;3.40;;;2.33;;
22780;SDS011;11557;50.884;4.322;2023-09-18T01:03:55;1.88;;;1.60;;
22780;SDS011;11557;50.884;4.322;2023-09-18T01:06:21;3.33;;;1.25;;
22780;SDS011;11557;50.884;4.322;2023-09-18T01:08:50;1.73;;;1.08;;
22780;SDS011;11557;50.884;4.322;2023-09-18T01:16:56;2.80;;;1.67;;
22780;SDS011;11557;50.884;4.322;2023-09-18T01:22:05;2.63;;;1.63;;
22780;SDS011;11557;50.884;4.322;2023-09-18T01:24:33;3.63;;;1.70;;
22780;SDS011;11557;50.884;4.322;2023-09-18T01:27:00;2.78;;;1.25;;
22780;SDS011;11557;50.884;4.322;2023-09-18T01:29:26;2.72;;;1.35;;
22780;SDS011;11557;50.884;4.322;2023-09-18T01:31:52;3.60;;;1.75;;
22780;SDS011;11557;50.884;4.322;2023-09-18T01:34:19;2.28;;;1.60;;
22780;SDS011;11557;50.884;4.322;2023-09-18T01:36:49;4.53;;;1.77;;
22780;SDS011;11557;50.884;4.322;2023-09-18T01:39:16;2.85;;;1.77;;
22780;SDS011;11557;50.884;4.322;2023-09-18T01:41:43;2.33;;;1.40;;
22780;SDS011;11557;50.884;4.322;2023-09-18T01:44:08;2.95;;;1.25;;
22780;SDS011;11557;50.884;4.322;2023-09-18T01:46:34;2.35;;;1.50;;
22780;SDS011;11557;50.884;4.322;2023-09-18T01:49:03;2.20;;;1.67;;
22780;SDS011;11557;50.884;4.322;2023-09-18T01:51:31;4.18;;;1.30;;
22780;SDS011;11557;50.884;4.322;2023-09-18T01:53:57;6.72;;;1.95;;
22780;SDS011;11557;50.884;4.322;2023-09-18T01:56:23;3.50;;;1.80;;
22780;SDS011;11557;50.884;4.322;2023-09-18T01:58:49;2.92;;;2.08;;
22780;SDS011;11557;50.884;4.322;2023-09-18T02:01:15;7.28;;;2.25;;
22780;SDS011;11557;50.884;4.322;2023-09-18T02:03:40;2.20;;;1.58;;
22780;SDS011;11557;50.884;4.322;2023-09-18T02:06:06;1.88;;;1.35;;
22780;SDS011;11557;50.884;4.322;2023-09-18T02:08:33;3.08;;;2.15;;
22780;SDS011;11557;50.884;4.322;2023-09-18T02:10:59;5.10;;;1.52;;
22780;SDS011;11557;50.884;4.322;2023-09-18T02:13:25;3.13;;;1.40;;
22780;SDS011;11557;50.884;4.322;2023-09-18T02:15:51;5.50;;;1.42;;
22780;SDS011;11557;50.884;4.322;2023-09-18T02:18:16;2.00;;;1.40;;
22780;SDS011;11557;50.884;4.322;2023-09-18T02:20:42;2.78;;;1.65;;
22780;SDS011;11557;50.884;4.322;2023-09-18T02:23:12;4.70;;;1.85;;
22780;SDS011;11557;50.884;4.322;2023-09-18T02:25:38;5.57;;;1.80;;
22780;SDS011;11557;50.884;4.322;2023-09-18T02:28:05;2.70;;;1.70;;
22780;SDS011;11557;50.884;4.322;2023-09-18T02:30:31;2.42;;;1.65;;
22780;SDS011;11557;50.884;4.322;2023-09-18T02:32:57;4.68;;;2.28;;
22780;SDS011;11557;50.884;4.322;2023-09-18T02:35:22;2.20;;;1.10;;
22780;SDS011;11557;50.884;4.322;2023-09-18T02:37:48;6.13;;;1.70;;
22780;SDS011;11557;50.884;4.322;2023-09-18T02:40:14;1.98;;;1.60;;
22780;SDS011;11557;50.884;4.322;2023-09-18T02:42:39;4.10;;;1.67;;
22780;SDS011;11557;50.884;4.322;2023-09-18T02:45:05;2.17;;;1.58;;
22780;SDS011;11557;50.884;4.322;2023-09-18T02:47:33;1.38;;;1.20;;
22780;SDS011;11557;50.884;4.322;2023-09-18T02:49:59;2.45;;;1.58;;
22780;SDS011;11557;50.884;4.322;2023-09-18T02:52:24;6.45;;;2.05;;
22780;SDS011;11557;50.884;4.322;2023-09-18T02:54:50;2.97;;;1.70;;
22780;SDS011;11557;50.884;4.322;2023-09-18T02:57:16;1.35;;;1.20;;
22780;SDS011;11557;50.884;4.322;2023-09-18T02:59:41;2.03;;;1.45;;
22780;SDS011;11557;50.884;4.322;2023-09-18T03:02:07;2.60;;;1.02;;
22780;SDS011;11557;50.884;4.322;2023-09-18T03:04:32;2.78;;;1.52;;
22780;SDS011;11557;50.884;4.322;2023-09-18T03:06:58;1.50;;;1.33;;
22780;SDS011;11557;50.884;4.322;2023-09-18T03:09:24;3.83;;;1.40;;
22780;SDS011;11557;50.884;4.322;2023-09-18T03:11:49;1.48;;;1.10;;
22780;SDS011;11557;50.884;4.322;2023-09-18T03:14:15;3.05;;;1.92;;
22780;SDS011;11557;50.884;4.322;2023-09-18T03:16:40;1.83;;;1.25;;
22780;SDS011;11557;50.884;4.322;2023-09-18T03:19:06;4.10;;;1.35;;
22780;SDS011;11557;50.884;4.322;2023-09-18T03:21:31;3.90;;;1.33;;
22780;SDS011;11557;50.884;4.322;2023-09-18T03:24:00;4.90;;;1.80;;
22780;SDS011;11557;50.884;4.322;2023-09-18T03:26:26;0.90;;;0.90;;
22780;SDS011;11557;50.884;4.322;2023-09-18T03:28:52;1.50;;;0.90;;
22780;SDS011;11557;50.884;4.322;2023-09-18T03:31:18;0.73;;;0.73;;
22780;SDS011;11557;50.884;4.322;2023-09-18T03:33:45;0.80;;;0.73;;
22780;SDS011;11557;50.884;4.322;2023-09-18T03:36:11;0.98;;;0.82;;
22780;SDS011;11557;50.884;4.322;2023-09-18T03:38:37;8.57;;;1.15;;
22780;SDS011;11557;50.884;4.322;2023-09-18T03:41:02;2.00;;;0.90;;
22780;SDS011;11557;50.884;4.322;2023-09-18T03:43:28;3.03;;;1.67;;
22780;SDS011;11557;50.884;4.322;2023-09-18T03:45:54;0.98;;;0.60;;
22780;SDS011;11557;50.884;4.322;2023-09-18T03:48:19;1.70;;;1.08;;
22780;SDS011;11557;50.884;4.322;2023-09-18T03:50:47;1.15;;;0.82;;
22780;SDS011;11557;50.884;4.322;2023-09-18T03:53:12;1.30;;;0.95;;
22780;SDS011;11557;50.884;4.322;2023-09-18T03:55:38;6.30;;;0.88;;
22780;SDS011;11557;50.884;4.322;2023-09-18T03:58:04;1.40;;;1.00;;
22780;SDS011;11557;50.884;4.322;2023-09-18T04:00:30;6.38;;;1.15;;
22780;SDS011;11557;50.884;4.322;2023-09-18T04:02:56;2.42;;;1.30;;
22780;SDS011;11557;50.884;4.322;2023-09-18T04:05:21;1.55;;;1.15;;
22780;SDS011;11557;50.884;4.322;2023-09-18T04:07:47;1.40;;;1.13;;
22780;SDS011;11557;50.884;4.322;2023-09-18T04:10:13;1.90;;;1.35;;
22780;SDS011;11557;50.884;4.322;2023-09-18T04:12:48;1.23;;;0.98;;
22780;SDS011;11557;50.884;4.322;2023-09-18T04:15:15;4.38;;;1.55;;
22780;SDS011;11557;50.884;4.322;2023-09-18T04:17:43;2.22;;;0.82;;
22780;SDS011;11557;50.884;4.322;2023-09-18T04:20:09;2.55;;;1.55;;
22780;SDS011;11557;50.884;4.322;2023-09-18T04:22:36;3.47;;;0.77;;
22780;SDS011;11557;50.884;4.322;2023-09-18T04:25:01;0.65;;;0.60;;
22780;SDS011;11557;50.884;4.322;2023-09-18T04:27:30;1.23;;;0.80;;
22780;SDS011;11557;50.884;4.322;2023-09-18T04:29:56;2.97;;;0.88;;
22780;SDS011;11557;50.884;4.322;2023-09-18T04:32:22;1.80;;;0.80;;
22780;SDS011;11557;50.884;4.322;2023-09-18T04:34:48;0.47;;;0.47;;
22780;SDS011;11557;50.884;4.322;2023-09-18T04:37:14;1.02;;;0.70;;
22780;SDS011;11557;50.884;4.322;2023-09-18T04:39:40;2.45;;;0.38;;
22780;SDS011;11557;50.884;4.322;2023-09-18T04:42:05;3.38;;;0.68;;
22780;SDS011;11557;50.884;4.322;2023-09-18T04:44:31;1.25;;;0.55;;
22780;SDS011;11557;50.884;4.322;2023-09-18T04:46:57;2.03;;;0.80;;
22780;SDS011;11557;50.884;4.322;2023-09-18T04:49:23;0.82;;;0.57;;
22780;SDS011;11557;50.884;4.322;2023-09-18T04:51:49;0.47;;;0.40;;
22780;SDS011;11557;50.884;4.322;2023-09-18T04:54:15;1.13;;;0.60;;
22780;SDS011;11557;50.884;4.322;2023-09-18T04:56:40;0.95;;;0.70;;
22780;SDS011;11557;50.884;4.322;2023-09-18T04:59:06;0.77;;;0.60;;
22780;SDS011;11557;50.884;4.322;2023-09-18T05:01:32;0.98;;;0.40;;
22780;SDS011;11557;50.884;4.322;2023-09-18T05:03:57;1.77;;;0.43;;
22780;SDS011;11557;50.884;4.322;2023-09-18T05:06:23;0.80;;;0.40;;
22780;SDS011;11557;50.884;4.322;2023-09-18T05:08:49;1.88;;;0.70;;
22780;SDS011;11557;50.884;4.322;2023-09-18T05:11:14;2.13;;;0.88;;
22780;SDS011;11557;50.884;4.322;2023-09-18T05:13:41;0.95;;;0.50;;
22780;SDS011;11557;50.884;4.322;2023-09-18T05:16:07;2.05;;;0.52;;
22780;SDS011;11557;50.884;4.322;2023-09-18T05:18:32;1.20;;;0.70;;
22780;SDS011;11557;50.884;4.322;2023-09-18T05:20:58;2.20;;;0.50;;
22780;SDS011;11557;50.884;4.322;2023-09-18T05:23:24;1.95;;;0.60;;
22780;SDS011;11557;50.884;4.322;2023-09-18T05:25:49;0.30;;;0.30;;
22780;SDS011;11557;50.884;4.322;2023-09-18T05:28:15;1.10;;;1.00;;
22780;SDS011;11557;50.884;4.322;2023-09-18T05:30:40;2.17;;;1.58;;
22780;SDS011;11557;50.884;4.322;2023-09-18T05:33:06;0.68;;;0.50;;
22780;SDS011;11557;50.884;4.322;2023-09-18T05:35:39;0.50;;;0.50;;
22780;SDS011;11557;50.884;4.322;2023-09-18T05:38:06;6.22;;;0.77;;
22780;SDS011;11557;50.884;4.322;2023-09-18T05:40:33;1.98;;;1.02;;
22780;SDS011;11557;50.884;4.322;2023-09-18T05:42:59;1.25;;;0.80;;
22780;SDS011;11557;50.884;4.322;2023-09-18T05:45:25;1.10;;;0.55;;
22780;SDS011;11557;50.884;4.322;2023-09-18T05:47:52;0.90;;;0.73;;
22780;SDS011;11557;50.884;4.322;2023-09-18T05:50:29;0.90;;;0.50;;
22780;SDS011;11557;50.884;4.322;2023-09-18T05:52:56;1.60;;;1.08;;
22780;SDS011;11557;50.884;4.322;2023-09-18T05:55:29;2.75;;;1.27;;
22780;SDS011;11557;50.884;4.322;2023-09-18T05:57:55;1.45;;;1.02;;
22780;SDS011;11557;50.884;4.322;2023-09-18T06:00:22;2.78;;;0.95;;
22780;SDS011;11557;50.884;4.322;2023-09-18T06:02:48;4.05;;;0.82;;
22780;SDS011;11557;50.884;4.322;2023-09-18T06:05:16;1.63;;;0.60;;
22780;SDS011;11557;50.884;4.322;2023-09-18T06:07:42;2.15;;;0.77;;
22780;SDS011;11557;50.884;4.322;2023-09-18T06:10:09;3.00;;;0.80;;
22780;SDS011;11557;50.884;4.322;2023-09-18T06:12:37;1.75;;;0.60;;
22780;SDS011;11557;50.884;4.322;2023-09-18T06:15:04;1.02;;;0.57;;
22780;SDS011;11557;50.884;4.322;2023-09-18T06:17:32;0.73;;;0.63;;
22780;SDS011;11557;50.884;4.322;2023-09-18T06:19:58;1.10;;;0.75;;
22780;SDS011;11557;50.884;4.322;2023-09-18T06:22:24;0.70;;;0.52;;
22780;SDS011;11557;50.884;4.322;2023-09-18T06:24:49;1.25;;;0.70;;
22780;SDS011;11557;50.884;4.322;2023-09-18T06:27:15;0.77;;;0.63;;
22780;SDS011;11557;50.884;4.322;2023-09-18T06:29:41;2.38;;;0.93;;
22780;SDS011;11557;50.884;4.322;2023-09-18T06:32:08;3.05;;;1.05;;
22780;SDS011;11557;50.884;4.322;2023-09-18T06:34:33;7.13;;;0.93;;
22780;SDS011;11557;50.884;4.322;2023-09-18T06:36:59;0.38;;;0.35;;
22780;SDS011;11557;50.884;4.322;2023-09-18T06:39:24;1.40;;;0.90;;
22780;SDS011;11557;50.884;4.322;2023-09-18T06:41:51;0.68;;;0.52;;
22780;SDS011;11557;50.884;4.322;2023-09-18T06:44:16;1.33;;;0.52;;
22780;SDS011;11557;50.884;4.322;2023-09-18T06:46:42;1.52;;;0.50;;
22780;SDS011;11557;50.884;4.322;2023-09-18T06:49:08;1.05;;;0.90;;
22780;SDS011;11557;50.884;4.322;2023-09-18T06:51:33;0.50;;;0.50;;
22780;SDS011;11557;50.884;4.322;2023-09-18T06:53:59;0.57;;;0.35;;
22780;SDS011;11557;50.884;4.322;2023-09-18T06:56:27;0.55;;;0.50;;
22780;SDS011;11557;50.884;4.322;2023-09-18T06:58:53;7.22;;;1.40;;
22780;SDS011;11557;50.884;4.322;2023-09-18T07:01:20;1.75;;;0.88;;
22780;SDS011;11557;50.884;4.322;2023-09-18T07:03:46;3.22;;;1.65;;
22780;SDS011;11557;50.884;4.322;2023-09-18T07:06:13;1.58;;;1.15;;
22780;SDS011;11557;50.884;4.322;2023-09-18T07:08:43;1.25;;;0.77;;
22780;SDS011;11557;50.884;4.322;2023-09-18T07:11:09;2.05;;;1.13;;
22780;SDS011;11557;50.884;4.322;2023-09-18T07:13:36;1.30;;;0.73;;
22780;SDS011;11557;50.884;4.322;2023-09-18T07:16:02;2.20;;;1.27;;
22780;SDS011;11557;50.884;4.322;2023-09-18T07:18:28;1.23;;;0.95;;
22780;SDS011;11557;50.884;4.322;2023-09-18T07:20:54;1.63;;;1.17;;
22780;SDS011;11557;50.884;4.322;2023-09-18T07:23:20;1.58;;;0.80;;
22780;SDS011;11557;50.884;4.322;2023-09-18T07:25:49;4.03;;;1.10;;
22780;SDS011;11557;50.884;4.322;2023-09-18T07:28:15;2.20;;;1.13;;
22780;SDS011;11557;50.884;4.322;2023-09-18T07:30:45;3.15;;;0.90;;
22780;SDS011;11557;50.884;4.322;2023-09-18T07:33:12;2.05;;;1.48;;
22780;SDS011;11557;50.884;4.322;2023-09-18T07:35:41;1.33;;;0.93;;
22780;SDS011;11557;50.884;4.322;2023-09-18T07:38:06;2.75;;;0.63;;
22780;SDS011;11557;50.884;4.322;2023-09-18T07:40:33;2.65;;;1.38;;
22780;SDS011;11557;50.884;4.322;2023-09-18T07:42:58;2.05;;;1.27;;
22780;SDS011;11557;50.884;4.322;2023-09-18T07:45:24;5.57;;;1.08;;
22780;SDS011;11557;50.884;4.322;2023-09-18T07:47:50;2.97;;;1.10;;
22780;SDS011;11557;50.884;4.322;2023-09-18T07:50:15;0.88;;;0.80;;
22780;SDS011;11557;50.884;4.322;2023-09-18T07:52:42;0.77;;;0.77;;
22780;SDS011;11557;50.884;4.322;2023-09-18T07:55:07;0.82;;;0.73;;
22780;SDS011;11557;50.884;4.322;2023-09-18T07:57:34;2.90;;;1.50;;
22780;SDS011;11557;50.884;4.322;2023-09-18T08:00:01;3.10;;;0.95;;
22780;SDS011;11557;50.884;4.322;2023-09-18T08:02:33;1.52;;;0.73;;
22780;SDS011;11557;50.884;4.322;2023-09-18T08:05:00;1.48;;;1.38;;
22780;SDS011;11557;50.884;4.322;2023-09-18T08:07:26;1.58;;;1.10;;
22780;SDS011;11557;50.884;4.322;2023-09-18T08:09:53;2.75;;;1.00;;
22780;SDS011;11557;50.884;4.322;2023-09-18T08:12:18;1.60;;;0.95;;
22780;SDS011;11557;50.884;4.322;2023-09-18T08:14:44;1.88;;;0.98;;
22780;SDS011;11557;50.884;4.322;2023-09-18T08:17:10;4.18;;;1.20;;
22780;SDS011;11557;50.884;4.322;2023-09-18T08:19:35;2.72;;;1.10;;
22780;SDS011;11557;50.884;4.322;2023-09-18T08:22:01;1.77;;;1.20;;
22780;SDS011;11557;50.884;4.322;2023-09-18T08:24:29;4.43;;;1.50;;
22780;SDS011;11557;50.884;4.322;2023-09-18T08:26:55;2.63;;;0.82;;
22780;SDS011;11557;50.884;4.322;2023-09-18T08:29:21;1.95;;;0.90;;
22780;SDS011;11557;50.884;4.322;2023-09-18T08:31:47;1.25;;;1.13;;
22780;SDS011;11557;50.884;4.322;2023-09-18T08:34:14;2.63;;;1.75;;
22780;SDS011;11557;50.884;4.322;2023-09-18T08:36:39;8.02;;;1.67;;
22780;SDS011;11557;50.884;4.322;2023-09-18T08:39:05;2.00;;;1.20;;
22780;SDS011;11557;50.884;4.322;2023-09-18T08:41:31;1.38;;;1.20;;
22780;SDS011;11557;50.884;4.322;2023-09-18T08:44:02;2.90;;;1.58;;
22780;SDS011;11557;50.884;4.322;2023-09-18T08:46:29;3.67;;;1.45;;
22780;SDS011;11557;50.884;4.322;2023-09-18T08:48:55;5.30;;;1.08;;
22780;SDS011;11557;50.884;4.322;2023-09-18T08:51:25;1.88;;;1.70;;
22780;SDS011;11557;50.884;4.322;2023-09-18T08:53:51;7.55;;;1.73;;
22780;SDS011;11557;50.884;4.322;2023-09-18T08:56:19;1.90;;;1.38;;
22780;SDS011;11557;50.884;4.322;2023-09-18T08:58:46;5.85;;;1.25;;
22780;SDS011;11557;50.884;4.322;2023-09-18T09:01:12;2.33;;;0.80;;
22780;SDS011;11557;50.884;4.322;2023-09-18T09:03:38;0.93;;;0.65;;
22780;SDS011;11557;50.884;4.322;2023-09-18T09:06:05;1.45;;;1.15;;
22780;SDS011;11557;50.884;4.322;2023-09-18T09:08:32;0.93;;;0.77;;
22780;SDS011;11557;50.884;4.322;2023-09-18T09:10:58;3.47;;;1.17;;
22780;SDS011;11557;50.884;4.322;2023-09-18T09:13:24;3.92;;;1.42;;
22780;SDS011;11557;50.884;4.322;2023-09-18T09:15:54;1.27;;;0.75;;
22780;SDS011;11557;50.884;4.322;2023-09-18T09:18:21;1.33;;;1.00;;
22780;SDS011;11557;50.884;4.322;2023-09-18T09:23:27;2.15;;;0.95;;
22780;SDS011;11557;50.884;4.322;2023-09-18T09:26:14;1.10;;;0.95;;
22780;SDS011;11557;50.884;4.322;2023-09-18T09:28:42;2.70;;;1.52;;
22780;SDS011;11557;50.884;4.322;2023-09-18T09:31:08;2.60;;;1.45;;
22780;SDS011;11557;50.884;4.322;2023-09-18T09:33:35;3.15;;;1.20;;
22780;SDS011;11557;50.884;4.322;2023-09-18T09:36:06;3.25;;;0.80;;
22780;SDS011;11557;50.884;4.322;2023-09-18T09:38:33;3.05;;;1.77;;
22780;SDS011;11557;50.884;4.322;2023-09-18T09:41:02;1.52;;;1.42;;
22780;SDS011;11557;50.884;4.322;2023-09-18T09:43:34;2.83;;;1.42;;
22780;SDS011;11557;50.884;4.322;2023-09-18T09:46:01;3.53;;;1.65;;
22780;SDS011;11557;50.884;4.322;2023-09-18T09:48:27;2.20;;;1.00;;
22780;SDS011;11557;50.884;4.322;2023-09-18T09:51:00;1.75;;;0.85;;
22780;SDS011;11557;50.884;4.322;2023-09-18T09:53:41;1.38;;;0.93;;
22780;SDS011;11557;50.884;4.322;2023-09-18T09:56:15;1.60;;;1.23;;
22780;SDS011;11557;50.884;4.322;2023-09-18T09:59:02;1.27;;;0.90;;
22780;SDS011;11557;50.884;4.322;2023-09-18T10:01:34;3.03;;;1.58;;
22780;SDS011;11557;50.884;4.322;2023-09-18T10:04:11;2.85;;;1.55;;
22780;SDS011;11557;50.884;4.322;2023-09-18T10:06:40;1.83;;;1.20;;
22780;SDS011;11557;50.884;4.322;2023-09-18T10:09:08;3.78;;;1.35;;
22780;SDS011;11557;50.884;4.322;2023-09-18T10:11:37;4.68;;;1.65;;
22780;SDS011;11557;50.884;4.322;2023-09-18T10:14:12;2.88;;;1.52;;
22780;SDS011;11557;50.884;4.322;2023-09-18T10:16:41;1.90;;;1.20;;
22780;SDS011;11557;50.884;4.322;2023-09-18T10:24:32;4.00;;;2.28;;
22780;SDS011;11557;50.884;4.322;2023-09-18T10:27:02;2.50;;;1.60;;
22780;SDS011;11557;50.884;4.322;2023-09-18T10:29:29;4.85;;;1.75;;
22780;SDS011;11557;50.884;4.322;2023-09-18T10:31:57;4.18;;;1.30;;
22780;SDS011;11557;50.884;4.322;2023-09-18T10:34:24;4.88;;;1.90;;
22780;SDS011;11557;50.884;4.322;2023-09-18T10:36:50;1.23;;;0.90;;
22780;SDS011;11557;50.884;4.322;2023-09-18T10:39:20;0.88;;;0.82;;
22780;SDS011;11557;50.884;4.322;2023-09-18T10:41:52;3.92;;;1.25;;
22780;SDS011;11557;50.884;4.322;2023-09-18T10:44:19;3.70;;;1.25;;
22780;SDS011;11557;50.884;4.322;2023-09-18T10:46:49;6.47;;;1.15;;
22780;SDS011;11557;50.884;4.322;2023-09-18T10:49:17;3.50;;;1.15;;
22780;SDS011;11557;50.884;4.322;2023-09-18T10:51:43;7.97;;;1.65;;
22780;SDS011;11557;50.884;4.322;2023-09-18T10:54:11;5.20;;;1.73;;
22780;SDS011;11557;50.884;4.322;2023-09-18T10:56:41;12.88;;;1.52;;
22780;SDS011;11557;50.884;4.322;2023-09-18T10:59:07;2.63;;;1.42;;
22780;SDS011;11557;50.884;4.322;2023-09-18T11:01:37;2.03;;;1.00;;
22780;SDS011;11557;50.884;4.322;2023-09-18T11:04:06;1.73;;;1.38;;
22780;SDS011;11557;50.884;4.322;2023-09-18T11:09:30;1.15;;;0.93;;
22780;SDS011;11557;50.884;4.322;2023-09-18T11:17:29;1.00;;;0.88;;
22780;SDS011;11557;50.884;4.322;2023-09-18T11:22:48;1.10;;;1.00;;
22780;SDS011;11557;50.884;4.322;2023-09-18T11:25:29;3.95;;;0.77;;
22780;SDS011;11557;50.884;4.322;2023-09-18T11:28:13;1.52;;;1.00;;
22780;SDS011;11557;50.884;4.322;2023-09-18T11:30:50;2.17;;;1.35;;
22780;SDS011;11557;50.884;4.322;2023-09-18T11:33:32;7.88;;;1.08;;
22780;SDS011;11557;50.884;4.322;2023-09-18T11:36:11;1.33;;;0.82;;
22780;SDS011;11557;50.884;4.322;2023-09-18T11:38:52;0.73;;;0.73;;
22780;SDS011;11557;50.884;4.322;2023-09-18T11:41:25;1.92;;;0.93;;
22780;SDS011;11557;50.884;4.322;2023-09-18T11:43:52;1.35;;;1.25;;
22780;SDS011;11557;50.884;4.322;2023-09-18T11:46:50;1.30;;;0.80;;
22780;SDS011;11557;50.884;4.322;2023-09-18T11:49:23;3.13;;;1.38;;
22780;SDS011;11557;50.884;4.322;2023-09-18T11:51:53;8.07;;;1.33;;
22780;SDS011;11557;50.884;4.322;2023-09-18T11:54:19;1.45;;;0.85;;
22780;SDS011;11557;50.884;4.322;2023-09-18T11:56:46;2.03;;;1.58;;
22780;SDS011;11557;50.884;4.322;2023-09-18T11:59:12;1.55;;;1.05;;
22780;SDS011;11557;50.884;4.322;2023-09-18T12:01:38;2.10;;;1.52;;
22780;SDS011;11557;50.884;4.322;2023-09-18T12:04:11;1.13;;;0.40;;
22780;SDS011;11557;50.884;4.322;2023-09-18T12:06:40;2.25;;;0.70;;
22780;SDS011;11557;50.884;4.322;2023-09-18T12:09:07;0.80;;;0.50;;
22780;SDS011;11557;50.884;4.322;2023-09-18T12:11:34;1.65;;;1.02;;
22780;SDS011;11557;50.884;4.322;2023-09-18T12:14:03;1.77;;;1.10;;
22780;SDS011;11557;50.884;4.322;2023-09-18T12:16:30;1.75;;;0.50;;
22780;SDS011;11557;50.884;4.322;2023-09-18T12:18:56;0.43;;;0.43;;
22780;SDS011;11557;50.884;4.322;2023-09-18T12:21:22;0.75;;;0.47;;
22780;SDS011;11557;50.884;4.322;2023-09-18T12:23:48;1.17;;;0.95;;
22780;SDS011;11557;50.884;4.322;2023-09-18T12:26:15;0.95;;;0.70;;
22780;SDS011;11557;50.884;4.322;2023-09-18T12:28:44;1.27;;;0.90;;
22780;SDS011;11557;50.884;4.322;2023-09-18T12:31:11;13.57;;;0.98;;
22780;SDS011;11557;50.884;4.322;2023-09-18T12:33:37;2.00;;;0.85;;
22780;SDS011;11557;50.884;4.322;2023-09-18T12:36:05;1.70;;;0.95;;
22780;SDS011;11557;50.884;4.322;2023-09-18T12:38:31;5.93;;;1.58;;
22780;SDS011;11557;50.884;4.322;2023-09-18T12:41:01;1.30;;;0.98;;
22780;SDS011;11557;50.884;4.322;2023-09-18T12:43:38;4.55;;;0.85;;
22780;SDS011;11557;50.884;4.322;2023-09-18T12:46:06;2.05;;;0.90;;
22780;SDS011;11557;50.884;4.322;2023-09-18T12:48:36;1.25;;;0.70;;
22780;SDS011;11557;50.884;4.322;2023-09-18T12:51:06;5.40;;;1.48;;
22780;SDS011;11557;50.884;4.322;2023-09-18T12:53:33;3.17;;;1.05;;
22780;SDS011;11557;50.884;4.322;2023-09-18T12:56:09;0.70;;;0.40;;
22780;SDS011;11557;50.884;4.322;2023-09-18T12:58:38;0.63;;;0.47;;
22780;SDS011;11557;50.884;4.322;2023-09-18T13:01:05;0.90;;;0.70;;
22780;SDS011;11557;50.884;4.322;2023-09-18T13:03:33;0.77;;;0.63;;
22780;SDS011;11557;50.884;4.322;2023-09-18T13:06:07;0.75;;;0.40;;
22780;SDS011;11557;50.884;4.322;2023-09-18T13:08:34;0.60;;;0.60;;
22780;SDS011;11557;50.884;4.322;2023-09-18T13:11:01;1.55;;;0.88;;
22780;SDS011;11557;50.884;4.322;2023-09-18T13:13:28;2.88;;;0.35;;
22780;SDS011;11557;50.884;4.322;2023-09-18T13:15:57;2.72;;;0.45;;
22780;SDS011;11557;50.884;4.322;2023-09-18T13:18:25;0.63;;;0.63;;
22780;SDS011;11557;50.884;4.322;2023-09-18T13:20:51;2.30;;;0.70;;
22780;SDS011;11557;50.884;4.322;2023-09-18T13:23:18;1.60;;;0.70;;
22780;SDS011;11557;50.884;4.322;2023-09-18T13:25:44;1.15;;;0.98;;
22780;SDS011;11557;50.884;4.322;2023-09-18T13:28:11;0.77;;;0.57;;
22780;SDS011;11557;50.884;4.322;2023-09-18T13:30:39;1.10;;;0.73;;
22780;SDS011;11557;50.884;4.322;2023-09-18T13:33:13;1.05;;;0.75;;
22780;SDS011;11557;50.884;4.322;2023-09-18T13:35:42;0.90;;;0.60;;
22780;SDS011;11557;50.884;4.322;2023-09-18T13:38:09;13.02;;;0.93;;
22780;SDS011;11557;50.884;4.322;2023-09-18T13:40:36;0.38;;;0.38;;
22780;SDS011;11557;50.884;4.322;2023-09-18T13:43:10;5.05;;;0.98;;
22780;SDS011;11557;50.884;4.322;2023-09-18T13:45:36;0.65;;;0.50;;
22780;SDS011;11557;50.884;4.322;2023-09-18T13:48:03;1.00;;;0.25;;
22780;SDS011;11557;50.884;4.322;2023-09-18T13:50:30;0.73;;;0.65;;
22780;SDS011;11557;50.884;4.322;2023-09-18T13:52:56;3.00;;;0.80;;
22780;SDS011;11557;50.884;4.322;2023-09-18T13:55:22;0.82;;;0.50;;
22780;SDS011;11557;50.884;4.322;2023-09-18T13:57:48;2.15;;;0.50;;
22780;SDS011;11557;50.884;4.322;2023-09-18T14:00:14;1.90;;;0.88;;
22780;SDS011;11557;50.884;4.322;2023-09-18T14:02:40;1.08;;;0.45;;
22780;SDS011;11557;50.884;4.322;2023-09-18T14:05:07;0.55;;;0.40;;
22780;SDS011;11557;50.884;4.322;2023-09-18T14:07:34;3.55;;;0.73;;
22780;SDS011;11557;50.884;4.322;2023-09-18T14:09:59;1.55;;;0.90;;
22780;SDS011;11557;50.884;4.322;2023-09-18T14:12:29;0.55;;;0.47;;
22780;SDS011;11557;50.884;4.322;2023-09-18T14:14:55;1.05;;;0.95;;
22780;SDS011;11557;50.884;4.322;2023-09-18T14:17:21;1.13;;;0.50;;
22780;SDS011;11557;50.884;4.322;2023-09-18T14:19:47;1.42;;;0.80;;
22780;SDS011;11557;50.884;4.322;2023-09-18T14:22:13;0.95;;;0.50;;
22780;SDS011;11557;50.884;4.322;2023-09-18T14:24:39;3.00;;;0.90;;
22780;SDS011;11557;50.884;4.322;2023-09-18T14:27:05;2.03;;;0.65;;
22780;SDS011;11557;50.884;4.322;2023-09-18T14:29:31;0.63;;;0.30;;
22780;SDS011;11557;50.884;4.322;2023-09-18T14:31:57;1.65;;;0.75;;
22780;SDS011;11557;50.884;4.322;2023-09-18T14:34:23;2.20;;;0.88;;
22780;SDS011;11557;50.884;4.322;2023-09-18T14:36:48;1.42;;;0.90;;
22780;SDS011;11557;50.884;4.322;2023-09-18T14:39:14;3.03;;;1.05;;
22780;SDS011;11557;50.884;4.322;2023-09-18T14:41:40;4.80;;;1.45;;
22780;SDS011;11557;50.884;4.322;2023-09-18T14:44:07;0.68;;;0.68;;
22780;SDS011;11557;50.884;4.322;2023-09-18T14:46:34;1.75;;;1.15;;
22780;SDS011;11557;50.884;4.322;2023-09-18T14:49:02;2.80;;;0.98;;
22780;SDS011;11557;50.884;4.322;2023-09-18T14:51:28;3.63;;;1.15;;
22780;SDS011;11557;50.884;4.322;2023-09-18T14:53:54;2.45;;;1.13;;
22780;SDS011;11557;50.884;4.322;2023-09-18T14:56:20;0.47;;;0.30;;
22780;SDS011;11557;50.884;4.322;2023-09-18T14:58:46;0.88;;;0.73;;
22780;SDS011;11557;50.884;4.322;2023-09-18T15:01:12;0.68;;;0.57;;
22780;SDS011;11557;50.884;4.322;2023-09-18T15:03:38;0.55;;;0.55;;
22780;SDS011;11557;50.884;4.322;2023-09-18T15:06:04;4.47;;;0.73;;
22780;SDS011;11557;50.884;4.322;2023-09-18T15:08:35;1.58;;;0.60;;
22780;SDS011;11557;50.884;4.322;2023-09-18T15:11:01;0.85;;;0.35;;
22780;SDS011;11557;50.884;4.322;2023-09-18T15:13:28;2.00;;;0.88;;
22780;SDS011;11557;50.884;4.322;2023-09-18T15:15:55;0.55;;;0.50;;
22780;SDS011;11557;50.884;4.322;2023-09-18T15:18:21;0.40;;;0.40;;
22780;SDS011;11557;50.884;4.322;2023-09-18T15:20:47;2.28;;;0.80;;